Time;durP1;ratioP1;P1;durP2;ratioP2;P2;SDS_P1;SDS_P2;PMS_P1;PMS_P2;Temp;Humidity;BMP_temperature;BMP_pressure;BME280_temperature;BME280_humidity;BME280_pressure;Samples;Min_cycle;Max_cycle;Signal;HPM_P1;HPM_P2
2021/10/19 00:02:07;;;;;;;25.73;17.23;;;308.00;2304.00;;;;;;5066125;28;20036;-79
2021/10/19 00:04:33;;;;;;;22.08;16.42;;;308.00;2304.00;;;;;;5055713;28;20470;-77
2021/10/19 00:06:59;;;;;;;24.90;16.25;;;308.00;2304.00;;;;;;5056179;28;20020;-77
2021/10/19 00:09:24;;;;;;;23.70;15.45;;;307.90;2304.00;;;;;;5075923;28;20094;-79
2021/10/19 00:11:50;;;;;;;20.55;14.75;;;307.90;2304.00;;;;;;5066447;28;20047;-77
2021/10/19 00:14:16;;;;;;;22.73;15.52;;;307.90;2304.00;;;;;;5057956;28;20028;-77
2021/10/19 00:16:42;;;;;;;22.40;15.48;;;307.80;2304.00;;;;;;5072059;28;20048;-78
2021/10/19 00:19:07;;;;;;;22.60;15.20;;;307.80;2304.00;;;;;;5055304;28;20028;-77
2021/10/19 00:21:33;;;;;;;32.10;19.45;;;307.80;2304.00;;;;;;5062931;28;20490;-77
2021/10/19 00:23:59;;;;;;;28.27;18.38;;;307.80;2304.00;;;;;;5054556;28;20037;-77
2021/10/19 00:26:25;;;;;;;24.88;16.42;;;307.70;2304.00;;;;;;5074065;28;20021;-79
2021/10/19 00:28:51;;;;;;;33.40;19.65;;;307.70;2304.00;;;;;;5073665;28;20021;-77
2021/10/19 00:31:16;;;;;;;39.90;22.77;;;307.70;2304.00;;;;;;5073782;28;20085;-76
2021/10/19 00:33:42;;;;;;;75.22;39.42;;;307.60;2304.00;;;;;;5073821;28;20025;-77
2021/10/19 00:36:08;;;;;;;65.78;36.17;;;307.60;2304.00;;;;;;5054492;28;20383;-77
2021/10/19 00:38:33;;;;;;;36.55;21.95;;;307.60;2304.00;;;;;;5055826;28;20087;-76
2021/10/19 00:40:59;;;;;;;24.52;17.25;;;307.50;2304.00;;;;;;5073352;28;20020;-77
2021/10/19 00:43:26;;;;;;;22.52;15.52;;;307.50;2304.00;;;;;;5055907;28;20471;-77
2021/10/19 00:45:53;;;;;;;29.08;15.95;;;307.40;2304.00;;;;;;5063536;28;20036;-77
2021/10/19 00:48:20;;;;;;;29.33;15.32;;;307.40;2304.00;;;;;;5055557;28;20029;-77
2021/10/19 00:50:47;;;;;;;20.42;15.65;;;307.40;2304.00;;;;;;5062027;28;20107;-77
2021/10/19 00:53:15;;;;;;;45.10;28.38;;;307.50;2304.00;;;;;;5055170;28;20112;-76
2021/10/19 00:55:41;;;;;;;54.92;33.13;;;307.30;2304.00;;;;;;5063707;28;20796;-76
2021/10/19 00:58:07;;;;;;;63.60;38.33;;;307.30;2304.00;;;;;;5060605;28;20025;-77
2021/10/19 01:00:33;;;;;;;35.20;23.80;;;307.20;2304.00;;;;;;5055347;28;20029;-78
2021/10/19 01:03:00;;;;;;;26.30;16.48;;;307.20;2304.00;;;;;;5072971;28;20449;-78
2021/10/19 01:05:26;;;;;;;23.80;16.33;;;307.20;2304.00;;;;;;5073096;28;20021;-80
2021/10/19 01:07:52;;;;;;;24.67;16.30;;;282.50;2278.40;;;;;;5071499;28;20021;-78
2021/10/19 01:10:18;;;;;;;26.25;16.05;;;282.30;2278.40;;;;;;5055258;28;20032;-78
2021/10/19 01:12:44;;;;;;;27.95;16.55;;;282.20;2278.40;;;;;;5054869;28;20036;-78
2021/10/19 01:15:12;;;;;;;26.42;16.85;;;282.20;2278.40;;;;;;5066272;28;20020;-79
2021/10/19 01:17:42;;;;;;;25.17;18.55;;;282.20;2278.40;;;;;;5072171;28;20120;-78
2021/10/19 01:20:35;;;;;;;25.75;18.50;;;282.10;2278.40;;;;;;5071282;28;20032;-80
2021/10/19 01:23:02;;;;;;;26.52;18.45;;;282.10;2278.40;;;;;;5058621;28;20044;-77
2021/10/19 01:25:30;;;;;;;27.30;18.67;;;282.10;2278.40;;;;;;5072296;28;20017;-78
2021/10/19 01:28:09;;;;;;;24.63;18.70;;;282.10;2278.40;;;;;;5072459;28;20012;-78
2021/10/19 01:30:45;;;;;;;26.15;17.60;;;282.00;2278.40;;;;;;5067044;28;20060;-77
2021/10/19 01:33:12;;;;;;;26.15;17.83;;;282.00;2278.40;;;;;;5054226;28;20491;-77
2021/10/19 01:35:46;;;;;;;26.23;18.15;;;281.90;2278.40;;;;;;5054643;28;20024;-77
2021/10/19 01:38:18;;;;;;;27.02;18.10;;;281.80;2278.40;;;;;;5054523;28;20035;-78
2021/10/19 01:40:45;;;;;;;24.00;18.23;;;281.80;2278.40;;;;;;5062334;28;20115;-78
2021/10/19 01:43:13;;;;;;;24.65;17.63;;;281.80;2278.40;;;;;;5072554;28;20078;-79
2021/10/19 01:45:39;;;;;;;28.55;18.23;;;281.80;2278.40;;;;;;5071598;28;20086;-77
2021/10/19 01:48:06;;;;;;;25.90;17.70;;;281.60;2278.40;;;;;;5066427;28;20055;-78
2021/10/19 01:50:32;;;;;;;30.02;19.98;;;281.60;2278.40;;;;;;5071188;28;20041;-78
2021/10/19 01:52:58;;;;;;;28.17;19.02;;;256.90;2252.80;;;;;;5072187;28;20058;-78
2021/10/19 01:55:24;;;;;;;30.30;18.25;;;256.90;2252.80;;;;;;5084980;28;20111;-79
2021/10/19 01:57:50;;;;;;;33.03;19.90;;;256.80;2252.80;;;;;;5071456;28;20735;-79
2021/10/19 02:00:16;;;;;;;38.25;23.67;;;256.70;2252.80;;;;;;5071780;28;20028;-78
2021/10/19 02:02:42;;;;;;;34.42;21.90;;;256.60;2252.80;;;;;;5071134;28;20114;-76
2021/10/19 02:05:09;;;;;;;29.15;20.77;;;256.50;2252.80;;;;;;5066463;28;20472;-78
2021/10/19 02:07:36;;;;;;;33.25;21.55;;;256.40;2252.80;;;;;;5058153;28;20479;-79
2021/10/19 02:10:03;;;;;;;28.95;20.13;;;256.40;2252.80;;;;;;5071485;28;20025;-79
2021/10/19 02:12:29;;;;;;;25.58;18.75;;;256.20;2252.80;;;;;;5056509;28;20544;-79
2021/10/19 02:14:55;;;;;;;31.88;20.92;;;256.20;2252.80;;;;;;5053537;28;20029;-78
2021/10/19 02:17:21;;;;;;;32.05;21.13;;;256.00;2252.80;;;;;;5053317;28;20080;-78
2021/10/19 02:19:46;;;;;;;28.42;19.77;;;256.00;2252.80;;;;;;5054258;28;20082;-78
2021/10/19 02:22:12;;;;;;;32.25;21.40;;;256.00;2252.80;;;;;;5073603;28;20039;-77
2021/10/19 02:24:38;;;;;;;45.20;22.73;;;231.20;2252.80;;;;;;5073675;28;20032;-77
2021/10/19 02:27:04;;;;;;;31.00;20.63;;;231.20;2252.80;;;;;;5074659;28;20025;-77
2021/10/19 02:29:29;;;;;;;29.90;21.90;;;231.20;2252.80;;;;;;5070349;28;20078;-78
2021/10/19 02:31:55;;;;;;;34.90;23.02;;;231.10;2252.80;;;;;;5072112;28;20028;-78
2021/10/19 02:34:22;;;;;;;37.53;23.58;;;231.00;2252.80;;;;;;5071169;28;20028;-78
2021/10/19 02:36:48;;;;;;;33.70;23.58;;;231.00;2252.80;;;;;;5041267;28;20437;-78
2021/10/19 02:39:14;;;;;;;34.25;23.30;;;230.90;2252.80;;;;;;5071851;28;20025;-78
2021/10/19 02:41:40;;;;;;;28.27;23.05;;;230.80;2252.80;;;;;;5071932;28;20039;-77
2021/10/19 02:44:06;;;;;;;40.88;23.45;;;230.80;2252.80;;;;;;5060914;28;20037;-77
2021/10/19 02:46:33;;;;;;;36.55;24.13;;;230.70;2252.80;;;;;;5053478;28;20028;-77
2021/10/19 02:48:59;;;;;;;34.35;23.08;;;230.70;2252.80;;;;;;5053615;28;20032;-77
2021/10/19 02:51:26;;;;;;;35.88;20.85;;;230.60;2252.80;;;;;;5065676;28;20111;-77
2021/10/19 02:53:54;;;;;;;40.50;23.95;;;230.60;2252.80;;;;;;5071932;28;20013;-77
2021/10/19 02:56:20;;;;;;;30.55;21.17;;;230.50;2252.80;;;;;;5064022;28;20025;-76
2021/10/19 02:58:46;;;;;;;38.75;24.80;;;230.60;2252.80;;;;;;5071647;28;20025;-76
2021/10/19 03:01:13;;;;;;;39.65;23.58;;;230.60;2252.80;;;;;;5075060;28;20024;-76
2021/10/19 03:03:39;;;;;;;36.97;25.35;;;230.60;2252.80;;;;;;5075365;28;20016;-77
2021/10/19 03:06:05;;;;;;;35.83;24.00;;;230.50;2252.80;;;;;;5075323;28;20103;-76
2021/10/19 03:08:31;;;;;;;34.20;24.17;;;205.70;2252.80;;;;;;5069795;28;20029;-76
2021/10/19 03:10:57;;;;;;;40.92;25.30;;;205.70;2252.80;;;;;;5075639;28;20112;-76
2021/10/19 03:13:24;;;;;;;38.22;26.13;;;205.60;2252.80;;;;;;5074389;28;20483;-76
2021/10/19 03:15:50;;;;;;;38.55;23.73;;;205.60;2252.80;;;;;;5075519;28;20044;-76
2021/10/19 03:18:16;;;;;;;42.47;27.00;;;205.60;2252.80;;;;;;5057727;28;20101;-76
2021/10/19 03:20:42;;;;;;;39.80;28.02;;;205.60;2252.80;;;;;;5075463;28;20467;-76
2021/10/19 03:23:08;;;;;;;45.95;28.67;;;205.50;2252.80;;;;;;5075242;28;20033;-76
2021/10/19 03:25:34;;;;;;;41.00;27.08;;;205.50;2252.80;;;;;;5057321;28;20044;-76
2021/10/19 03:28:00;;;;;;;36.83;25.95;;;205.50;2252.80;;;;;;5062430;28;20383;-76
2021/10/19 03:30:26;;;;;;;43.17;26.30;;;205.40;2252.80;;;;;;5057930;28;20032;-76
2021/10/19 03:32:52;;;;;;;37.88;26.83;;;205.40;2252.80;;;;;;5074593;28;20036;-77
2021/10/19 03:35:17;;;;;;;36.92;24.17;;;205.50;2252.80;;;;;;5075554;28;20021;-77
2021/10/19 03:37:43;;;;;;;37.80;24.27;;;205.50;2252.80;;;;;;5057091;28;20495;-77
2021/10/19 03:40:10;;;;;;;38.67;25.77;;;205.60;2252.80;;;;;;5060484;28;20028;-76
2021/10/19 03:42:40;;;;;;;41.95;27.50;;;205.60;2252.80;;;;;;5074753;28;20024;-76
2021/10/19 03:45:07;;;;;;;44.35;27.15;;;205.60;2252.80;;;;;;5088715;28;20025;-76
2021/10/19 03:47:32;;;;;;;46.67;26.23;;;205.60;2252.80;;;;;;5075729;28;20025;-76
2021/10/19 03:49:58;;;;;;;42.90;28.42;;;205.60;2252.80;;;;;;5057713;28;20047;-78
2021/10/19 03:52:25;;;;;;;43.55;29.30;;;205.40;2252.80;;;;;;5071229;28;20028;-77
2021/10/19 03:54:51;;;;;;;37.40;26.13;;;205.50;2252.80;;;;;;5061310;28;20059;-78
2021/10/19 03:57:16;;;;;;;38.53;26.27;;;205.40;2252.80;;;;;;5072011;28;20056;-78
2021/10/19 03:59:42;;;;;;;38.42;26.02;;;205.40;2252.80;;;;;;5076403;28;20502;-79
2021/10/19 04:02:08;;;;;;;38.40;25.20;;;205.40;2252.80;;;;;;5078397;28;20046;-76
2021/10/19 04:04:35;;;;;;;35.90;24.80;;;205.40;2252.80;;;;;;5075217;28;20033;-77
2021/10/19 04:07:02;;;;;;;37.17;25.10;;;205.30;2252.80;;;;;;5075921;28;20020;-77
2021/10/19 04:09:28;;;;;;;33.72;24.13;;;205.40;2252.80;;;;;;5074056;28;20025;-77
2021/10/19 04:11:54;;;;;;;33.70;23.40;;;205.30;2252.80;;;;;;5047992;28;20468;-77
2021/10/19 04:14:20;;;;;;;47.60;26.52;;;205.30;2252.80;;;;;;5056182;28;20054;-76
2021/10/19 04:16:46;;;;;;;52.78;31.70;;;205.20;2252.80;;;;;;5056188;28;20060;-76
2021/10/19 04:19:12;;;;;;;53.60;31.17;;;205.20;2252.80;;;;;;5074609;28;20028;-77
2021/10/19 04:21:41;;;;;;;39.10;27.88;;;205.20;2252.80;;;;;;5077390;28;20032;-76
2021/10/19 04:24:07;;;;;;;45.40;28.88;;;205.10;2252.80;;;;;;5064849;28;20032;-76
2021/10/19 04:26:33;;;;;;;47.10;27.30;;;205.10;2252.80;;;;;;5083289;28;21337;-77
2021/10/19 04:28:59;;;;;;;45.92;28.25;;;205.10;2252.80;;;;;;5061199;28;20116;-76
2021/10/19 04:31:25;;;;;;;40.22;26.52;;;205.10;2252.80;;;;;;5060729;28;20032;-78
2021/10/19 04:33:50;;;;;;;40.45;25.88;;;205.10;2252.80;;;;;;5079033;28;20383;-77
2021/10/19 04:36:16;;;;;;;41.20;28.25;;;205.10;2252.80;;;;;;5082924;28;20406;-77
2021/10/19 04:38:42;;;;;;;45.78;27.30;;;205.20;2252.80;;;;;;5073993;28;20031;-77
2021/10/19 04:41:08;;;;;;;34.08;25.52;;;205.20;2252.80;;;;;;5073102;28;20048;-77
2021/10/19 04:43:33;;;;;;;50.45;27.55;;;205.20;2252.80;;;;;;5062838;28;20024;-78
2021/10/19 04:45:59;;;;;;;43.70;28.58;;;205.20;2252.80;;;;;;5080517;28;20387;-78
2021/10/19 04:48:26;;;;;;;53.03;28.35;;;205.20;2252.80;;;;;;5080046;28;20025;-77
2021/10/19 04:50:51;;;;;;;50.42;27.17;;;205.10;2252.80;;;;;;5080849;28;20024;-78
2021/10/19 04:53:17;;;;;;;42.35;26.52;;;205.20;2252.80;;;;;;5058595;28;20365;-79
2021/10/19 04:55:47;;;;;;;36.85;24.10;;;205.10;2252.80;;;;;;5073608;28;20029;-78
2021/10/19 04:58:14;;;;;;;39.00;24.30;;;205.00;2252.80;;;;;;5079327;28;20803;-76
2021/10/19 05:00:40;;;;;;;36.90;24.35;;;205.00;2252.80;;;;;;5072855;28;20082;-76
2021/10/19 05:03:05;;;;;;;36.47;24.77;;;204.90;2252.80;;;;;;5054528;28;20036;-76
2021/10/19 05:05:31;;;;;;;37.22;25.27;;;204.90;2252.80;;;;;;5064744;28;20111;-77
2021/10/19 05:07:57;;;;;;;33.50;23.20;;;204.90;2252.80;;;;;;5054516;28;20035;-75
2021/10/19 05:10:23;;;;;;;38.42;24.75;;;205.00;2252.80;;;;;;5075401;28;20150;-75
2021/10/19 05:12:49;;;;;;;34.60;24.95;;;205.00;2252.80;;;;;;5074136;28;20081;-75
2021/10/19 05:15:14;;;;;;;35.58;24.27;;;204.90;2252.80;;;;;;5071902;28;20060;-75
2021/10/19 05:17:40;;;;;;;37.75;24.30;;;204.90;2252.80;;;;;;5054039;28;20357;-75
2021/10/19 05:20:06;;;;;;;34.38;22.98;;;204.90;2252.80;;;;;;5056257;28;20525;-75
2021/10/19 05:22:35;;;;;;;36.17;23.30;;;204.90;2252.80;;;;;;5055881;28;20017;-75
2021/10/19 05:25:00;;;;;;;39.05;23.75;;;204.80;2252.80;;;;;;5055641;28;20024;-76
2021/10/19 05:27:26;;;;;;;34.80;24.17;;;204.90;2252.80;;;;;;5073307;28;20086;-76
2021/10/19 05:29:52;;;;;;;41.13;24.98;;;204.90;2252.80;;;;;;5072620;28;20017;-76
2021/10/19 05:32:18;;;;;;;35.67;23.83;;;204.90;2252.80;;;;;;5054422;28;20510;-75
2021/10/19 05:34:43;;;;;;;37.25;24.23;;;204.90;2252.80;;;;;;5072037;28;20031;-75
2021/10/19 05:37:09;;;;;;;66.97;37.20;;;204.90;2252.80;;;;;;5053823;28;20043;-76
2021/10/19 05:39:35;;;;;;;66.13;37.33;;;204.90;2252.80;;;;;;5070542;28;20060;-76
2021/10/19 05:42:02;;;;;;;48.92;30.77;;;204.90;2252.80;;;;;;5070830;28;20494;-75
2021/10/19 05:44:28;;;;;;;48.20;27.42;;;205.00;2252.80;;;;;;5073782;28;20021;-76
2021/10/19 05:46:53;;;;;;;44.25;28.27;;;205.20;2252.80;;;;;;5071921;28;20024;-76
2021/10/19 05:49:19;;;;;;;42.88;26.98;;;205.20;2252.80;;;;;;5073230;28;20065;-75
2021/10/19 05:51:46;;;;;;;90.18;46.10;;;205.20;2252.80;;;;;;5071037;28;20096;-75
2021/10/19 05:54:13;;;;;;;91.57;42.17;;;205.20;2252.80;;;;;;5052416;28;20032;-75
2021/10/19 05:56:40;;;;;;;57.35;35.78;;;205.20;2252.80;;;;;;5070628;28;20024;-75
2021/10/19 05:59:06;;;;;;;54.85;32.33;;;205.30;2252.80;;;;;;5069998;28;20035;-75
2021/10/19 06:01:31;;;;;;;49.35;30.30;;;205.30;2252.80;;;;;;5070468;28;20025;-75
2021/10/19 06:03:57;;;;;;;41.20;29.13;;;205.30;2252.80;;;;;;5052173;28;20021;-75
2021/10/19 06:06:23;;;;;;;49.97;28.48;;;205.30;2252.80;;;;;;5052794;28;20047;-75
2021/10/19 06:08:51;;;;;;;42.72;27.42;;;205.30;2252.80;;;;;;5069768;28;20118;-76
2021/10/19 06:11:18;;;;;;;37.22;25.15;;;205.30;2252.80;;;;;;5070479;28;20103;-75
2021/10/19 06:13:44;;;;;;;40.25;26.95;;;205.10;2252.80;;;;;;5051907;28;20071;-76
2021/10/19 06:16:09;;;;;;;48.63;29.60;;;205.40;2252.80;;;;;;5064029;28;20503;-76
2021/10/19 06:18:35;;;;;;;48.15;28.33;;;205.50;2252.80;;;;;;5051328;28;20029;-75
2021/10/19 06:21:01;;;;;;;43.63;29.23;;;205.50;2252.80;;;;;;5069001;28;20046;-75
2021/10/19 06:23:28;;;;;;;41.22;26.48;;;205.60;2252.80;;;;;;5069227;28;20025;-76
2021/10/19 06:25:54;;;;;;;45.33;27.35;;;205.70;2252.80;;;;;;5050805;28;20074;-75
2021/10/19 06:28:20;;;;;;;40.58;25.20;;;230.40;2252.80;;;;;;5049981;28;20037;-75
2021/10/19 06:30:45;;;;;;;45.80;26.33;;;230.40;2252.80;;;;;;5050542;28;20020;-75
2021/10/19 06:33:11;;;;;;;44.72;27.02;;;230.50;2252.80;;;;;;5069129;28;20066;-76
2021/10/19 06:35:37;;;;;;;41.55;27.23;;;230.60;2252.80;;;;;;5070492;28;20082;-76
2021/10/19 06:38:03;;;;;;;42.13;28.63;;;230.60;2252.80;;;;;;5055601;28;20028;-76
2021/10/19 06:40:29;;;;;;;46.28;28.85;;;230.70;2252.80;;;;;;5074904;28;20036;-75
2021/10/19 06:42:55;;;;;;;46.15;27.02;;;230.70;2252.80;;;;;;5073985;28;20534;-75
2021/10/19 06:45:20;;;;;;;45.35;26.80;;;230.80;2252.80;;;;;;5075580;28;20032;-75
2021/10/19 06:47:46;;;;;;;51.63;30.23;;;230.90;2252.80;;;;;;5073992;28;20501;-75
2021/10/19 06:50:12;;;;;;;44.42;27.83;;;231.00;2252.80;;;;;;5057801;28;20009;-75
2021/10/19 06:52:37;;;;;;;45.42;29.40;;;231.10;2252.80;;;;;;5057250;28;20016;-76
2021/10/19 06:55:05;;;;;;;44.40;33.10;;;231.30;2252.80;;;;;;5074304;28;20029;-76
2021/10/19 06:57:31;;;;;;;54.95;34.17;;;256.00;2252.80;;;;;;5073092;28;20504;-75
2021/10/19 07:00:00;;;;;;;51.85;33.28;;;256.10;2252.80;;;;;;5073794;28;20112;-75
2021/10/19 07:02:26;;;;;;;49.30;29.65;;;256.10;2252.80;;;;;;5071676;28;20032;-76
2021/10/19 07:04:52;;;;;;;52.65;31.83;;;256.30;2252.80;;;;;;5072980;28;20028;-75
2021/10/19 07:07:18;;;;;;;53.05;33.38;;;256.40;2252.80;;;;;;5071376;28;20112;-76
2021/10/19 07:09:43;;;;;;;48.00;32.20;;;256.40;2252.80;;;;;;5055815;28;20027;-75
2021/10/19 07:12:09;;;;;;;43.70;30.02;;;256.50;2252.80;;;;;;5074066;28;20028;-75
2021/10/19 07:14:35;;;;;;;48.97;30.63;;;256.60;2252.80;;;;;;5055645;28;20078;-76
2021/10/19 07:17:00;;;;;;;47.80;32.05;;;256.70;2252.80;;;;;;5072626;28;20124;-77
2021/10/19 07:19:26;;;;;;;48.60;31.95;;;256.80;2252.80;;;;;;5072654;28;20047;-77
2021/10/19 07:21:52;;;;;;;49.10;31.42;;;256.90;2252.80;;;;;;5054951;28;20031;-76
2021/10/19 07:24:17;;;;;;;54.58;32.63;;;281.60;2278.40;;;;;;5053817;28;20476;-76
2021/10/19 07:26:43;;;;;;;44.45;31.50;;;281.80;2278.40;;;;;;5072924;28;20519;-76
2021/10/19 07:29:10;;;;;;;49.75;31.38;;;282.10;2278.40;;;;;;5072366;28;20024;-76
2021/10/19 07:31:35;;;;;;;43.67;27.90;;;282.30;2278.40;;;;;;5072768;28;20016;-76
2021/10/19 07:34:02;;;;;;;43.78;27.00;;;282.50;2278.40;;;;;;5072271;28;20016;-75
2021/10/19 07:36:27;;;;;;;38.35;25.80;;;307.30;2304.00;;;;;;5072180;28;20451;-76
2021/10/19 07:38:53;;;;;;;48.35;26.20;;;307.60;2304.00;;;;;;5072661;28;20103;-76
2021/10/19 07:41:19;;;;;;;44.58;26.10;;;307.90;2304.00;;;;;;5071255;28;20029;-76
2021/10/19 07:43:45;;;;;;;43.47;27.73;;;308.10;2304.00;;;;;;5054463;28;20493;-77
2021/10/19 07:46:10;;;;;;;47.05;26.50;;;332.90;2329.60;;;;;;5071980;28;20467;-76
2021/10/19 07:48:36;;;;;;;42.17;26.08;;;333.20;2329.60;;;;;;5071027;28;20041;-76
2021/10/19 07:51:02;;;;;;;48.05;27.85;;;333.60;2329.60;;;;;;5054290;28;20016;-75
2021/10/19 07:53:28;;;;;;;48.70;26.88;;;358.40;2329.60;;;;;;5072554;28;20024;-76
2021/10/19 07:55:54;;;;;;;44.28;27.90;;;358.60;2329.60;;;;;;5054059;28;20031;-73
2021/10/19 07:58:20;;;;;;;38.72;23.95;;;358.80;2329.60;;;;;;5054433;28;20123;-75
2021/10/19 08:00:46;;;;;;;33.63;23.77;;;359.10;2329.60;;;;;;5071943;28;20021;-75
2021/10/19 08:03:12;;;;;;;31.83;21.10;;;359.30;2329.60;;;;;;5053878;28;20021;-73
2021/10/19 08:05:41;;;;;;;32.35;22.95;;;384.10;2329.60;;;;;;5053949;28;20107;-73
2021/10/19 08:08:10;;;;;;;30.15;21.10;;;384.50;2329.60;;;;;;5071747;28;20016;-73
2021/10/19 08:10:38;;;;;;;26.08;18.58;;;384.70;2329.60;;;;;;5071958;28;20017;-73
2021/10/19 08:13:04;;;;;;;33.50;21.30;;;409.60;2355.20;;;;;;5071479;28;20525;-73
2021/10/19 08:15:30;;;;;;;35.25;21.88;;;409.80;2355.20;;;;;;5072008;28;20076;-73
2021/10/19 08:17:56;;;;;;;42.35;22.23;;;410.20;2355.20;;;;;;5065520;28;20032;-73
2021/10/19 08:20:22;;;;;;;40.40;26.77;;;410.50;2355.20;;;;;;5053899;28;20545;-74
2021/10/19 08:22:49;;;;;;;32.50;22.35;;;435.40;2355.20;;;;;;5071658;28;20025;-75
2021/10/19 08:25:14;;;;;;;32.42;21.67;;;435.70;2355.20;;;;;;5071130;28;20032;-74
2021/10/19 08:27:43;;;;;;;24.73;20.10;;;435.80;2355.20;;;;;;5062087;28;20392;-74
2021/10/19 08:30:12;;;;;;;27.70;19.20;;;435.90;2355.20;;;;;;5071179;28;20047;-74
2021/10/19 08:32:38;;;;;;;25.75;20.20;;;460.90;2380.80;;;;;;5053460;28;20487;-73
2021/10/19 08:35:05;;;;;;;34.80;22.67;;;461.20;2380.80;;;;;;5069581;28;20074;-74
2021/10/19 08:37:32;;;;;;;32.30;22.20;;;461.50;2380.80;;;;;;5052851;28;20064;-74
2021/10/19 08:39:58;;;;;;;33.60;23.10;;;486.40;2380.80;;;;;;5071021;28;20371;-74
2021/10/19 08:42:24;;;;;;;28.80;20.25;;;486.70;2380.80;;;;;;5071408;28;20028;-74
2021/10/19 08:44:50;;;;;;;26.88;20.70;;;486.70;2380.80;;;;;;5052994;28;20438;-74
2021/10/19 08:47:16;;;;;;;30.48;20.48;;;487.00;2380.80;;;;;;5052780;28;20028;-74
2021/10/19 08:49:42;;;;;;;27.48;18.52;;;512.00;2380.80;;;;;;5053326;28;20074;-74
2021/10/19 08:52:09;;;;;;;23.63;17.77;;;512.10;2380.80;;;;;;5052907;28;20376;-74
2021/10/19 08:54:35;;;;;;;27.30;18.83;;;512.40;2380.80;;;;;;5052620;28;20020;-74
2021/10/19 08:57:00;;;;;;;25.75;19.60;;;512.40;2380.80;;;;;;5069900;28;20027;-74
2021/10/19 08:59:26;;;;;;;29.27;19.65;;;512.70;2355.20;;;;;;5069822;28;20503;-74
2021/10/19 09:01:56;;;;;;;34.47;21.70;;;537.60;2329.60;;;;;;5070147;28;20020;-74
2021/10/19 09:04:28;;;;;;;36.70;21.63;;;538.20;2278.40;;;;;;5054951;28;20028;-75
2021/10/19 09:06:54;;;;;;;41.30;25.73;;;538.20;2252.80;;;;;;5054579;28;20019;-75
2021/10/19 09:09:24;;;;;;;35.00;23.90;;;563.20;2252.80;;;;;;5068668;28;20024;-74
2021/10/19 09:11:52;;;;;;;29.55;19.10;;;563.30;2201.60;;;;;;5062175;28;20480;-75
2021/10/19 09:14:19;;;;;;;29.55;20.23;;;563.40;2124.80;;;;;;5081466;28;20103;-75
2021/10/19 09:16:51;;;;;;;26.55;18.33;;;563.60;2073.60;;;;;;5071923;28;20151;-75
2021/10/19 09:19:21;;;;;;;22.88;17.90;;;563.80;2073.60;;;;;;5062999;28;20122;-74
2021/10/19 09:21:53;;;;;;;20.63;14.63;;;563.90;2022.40;;;;;;5070129;28;20020;-74
2021/10/19 09:24:28;;;;;;;22.63;15.63;;;563.90;1996.80;;;;;;5078162;28;20024;-74
2021/10/19 09:26:58;;;;;;;29.10;17.58;;;563.90;1971.20;;;;;;5063600;28;20021;-74
2021/10/19 09:29:25;;;;;;;19.30;14.40;;;563.60;1971.20;;;;;;5048881;28;20020;-75
2021/10/19 09:31:56;;;;;;;23.55;15.65;;;563.80;1945.60;;;;;;5056402;28;20029;-75
2021/10/19 09:34:23;;;;;;;23.23;15.98;;;588.80;1920.00;;;;;;5067439;28;20031;-75
2021/10/19 09:36:51;;;;;;;20.50;15.68;;;588.80;1894.40;;;;;;5072003;28;20017;-74
2021/10/19 09:39:33;;;;;;;19.40;14.30;;;588.90;1894.40;;;;;;5072106;28;20051;-75
2021/10/19 09:42:00;;;;;;;22.92;16.77;;;589.30;1843.20;;;;;;5059903;28;20020;-74
2021/10/19 09:44:26;;;;;;;18.58;13.20;;;589.50;1817.60;;;;;;5064599;28;20033;-75
2021/10/19 09:46:52;;;;;;;19.50;12.30;;;589.60;1792.00;;;;;;5072211;28;20038;-74
2021/10/19 09:49:18;;;;;;;24.08;17.45;;;614.50;1766.40;;;;;;5071928;28;20028;-74
2021/10/19 09:51:44;;;;;;;18.80;13.30;;;614.50;1740.80;;;;;;5067825;28;20475;-74
2021/10/19 09:54:11;;;;;;;22.77;16.58;;;614.90;1689.60;;;;;;5053861;28;20074;-74
2021/10/19 09:56:39;;;;;;;21.23;18.88;;;615.00;1689.60;;;;;;5053752;28;20382;-74
2021/10/19 09:59:05;;;;;;;21.48;13.70;;;615.30;1664.00;;;;;;5054367;28;20478;-75
2021/10/19 10:01:35;;;;;;;15.20;11.80;;;615.10;1664.00;;;;;;5053925;28;20116;-75
2021/10/19 10:04:02;;;;;;;15.93;13.07;;;614.90;1664.00;;;;;;5072261;28;20410;-75
2021/10/19 10:06:30;;;;;;;11.98;8.68;;;614.50;1664.00;;;;;;5053592;28;20021;-74
2021/10/19 10:08:59;;;;;;;15.38;10.15;;;614.50;1664.00;;;;;;5070731;28;20429;-75
2021/10/19 10:11:25;;;;;;;12.43;10.68;;;614.90;1612.80;;;;;;5071610;28;20353;-75
2021/10/19 10:13:59;;;;;;;11.70;8.85;;;615.00;1587.20;;;;;;5071973;28;20138;-75
2021/10/19 10:16:26;;;;;;;8.52;6.25;;;614.90;1587.20;;;;;;5053322;28;20040;-75
2021/10/19 10:18:52;;;;;;;9.57;6.65;;;615.10;1510.40;;;;;;5053138;28;20040;-75
2021/10/19 10:21:21;;;;;;;11.52;8.43;;;640.00;1510.40;;;;;;5071245;28;20035;-75
2021/10/19 10:23:58;;;;;;;15.80;11.52;;;640.70;1484.80;;;;;;5070321;28;20021;-75
2021/10/19 10:26:27;;;;;;;16.42;11.60;;;640.70;1510.40;;;;;;5069501;28;20107;-75
2021/10/19 10:28:52;;;;;;;14.23;9.82;;;640.60;1510.40;;;;;;5060879;28;20383;-75
2021/10/19 10:31:23;;;;;;;15.15;9.88;;;640.40;1484.80;;;;;;5075520;28;20021;-75
2021/10/19 10:34:04;;;;;;;16.02;11.13;;;640.60;1484.80;;;;;;5072017;28;20017;-75
2021/10/19 10:36:38;;;;;;;15.13;10.80;;;640.60;1510.40;;;;;;5071389;28;20047;-75
2021/10/19 10:39:07;;;;;;;18.38;11.90;;;665.60;1510.40;;;;;;5062342;28;20024;-76
2021/10/19 10:41:47;;;;;;;14.40;10.75;;;666.10;1484.80;;;;;;5072066;28;20013;-75
2021/10/19 10:44:22;;;;;;;17.05;11.95;;;666.20;1459.20;;;;;;5062056;28;20536;-75
2021/10/19 10:46:48;;;;;;;15.67;11.07;;;666.50;1459.20;;;;;;5054019;28;20070;-75
2021/10/19 10:49:14;;;;;;;16.58;10.65;;;691.20;1433.60;;;;;;5071163;28;20266;-76
2021/10/19 10:51:41;;;;;;;17.25;11.30;;;691.40;1408.00;;;;;;5074688;28;20493;-75
2021/10/19 10:54:12;;;;;;;15.27;10.52;;;666.20;1433.60;;;;;;5079399;28;20031;-75
2021/10/19 10:56:51;;;;;;;12.18;9.65;;;665.80;1433.60;;;;;;5052669;28;20043;-78
2021/10/19 10:59:28;;;;;;;23.48;12.30;;;666.30;1433.60;;;;;;5069361;28;20033;-75
2021/10/19 11:02:06;;;;;;;11.60;9.15;;;665.80;1433.60;;;;;;5052593;28;20107;-75
2021/10/19 11:04:32;;;;;;;11.30;8.75;;;640.70;1408.00;;;;;;5074256;28;20040;-75
2021/10/19 11:06:58;;;;;;;12.90;8.80;;;640.70;1433.60;;;;;;5059361;28;20033;-75
2021/10/19 11:09:29;;;;;;;12.80;10.73;;;640.90;1408.00;;;;;;5056311;28;20052;-76
2021/10/19 11:11:58;;;;;;;16.88;10.13;;;640.70;1433.60;;;;;;5058198;28;20055;-76
2021/10/19 11:14:25;;;;;;;14.02;8.65;;;640.60;1433.60;;;;;;5056560;28;20060;-76
2021/10/19 11:16:56;;;;;;;10.82;9.52;;;640.80;1408.00;;;;;;5078476;28;20045;-76
2021/10/19 11:19:26;;;;;;;13.63;9.52;;;640.60;1408.00;;;;;;5083050;28;20430;-75
2021/10/19 11:21:54;;;;;;;10.68;8.93;;;640.40;1433.60;;;;;;5072522;28;20029;-76
2021/10/19 11:24:22;;;;;;;11.70;8.98;;;640.90;1382.40;;;;;;5053931;28;20064;-76
2021/10/19 11:26:49;;;;;;;13.82;10.45;;;666.20;1382.40;;;;;;5080933;28;20016;-76
2021/10/19 11:29:17;;;;;;;14.23;9.25;;;666.00;1408.00;;;;;;5058017;28;20105;-76
2021/10/19 11:31:43;;;;;;;11.15;8.90;;;665.80;1382.40;;;;;;5055611;28;20016;-76
2021/10/19 11:34:09;;;;;;;14.43;8.98;;;640.90;1408.00;;;;;;5073357;28;20487;-75
2021/10/19 11:36:36;;;;;;;13.23;11.82;;;640.70;1382.40;;;;;;5081164;28;20078;-75
2021/10/19 11:39:11;;;;;;;11.48;9.02;;;665.60;1382.40;;;;;;5058629;28;20035;-76
2021/10/19 11:41:38;;;;;;;10.80;7.45;;;666.00;1356.80;;;;;;5071755;28;20027;-76
2021/10/19 11:44:06;;;;;;;13.82;9.35;;;666.30;1356.80;;;;;;5069331;28;20044;-76
2021/10/19 11:46:35;;;;;;;13.75;10.23;;;691.50;1331.20;;;;;;5076318;28;20020;-76
2021/10/19 11:49:18;;;;;;;14.30;11.27;;;691.60;1356.80;;;;;;5073711;28;20052;-75
2021/10/19 11:51:45;;;;;;;11.40;10.13;;;691.90;1331.20;;;;;;5073756;28;20027;-74
2021/10/19 11:54:13;;;;;;;13.73;12.32;;;691.80;1305.60;;;;;;5058515;28;20017;-75
2021/10/19 11:56:40;;;;;;;12.95;11.50;;;691.90;1331.20;;;;;;5051788;28;20139;-75
2021/10/19 11:59:08;;;;;;;12.95;11.38;;;691.90;1305.60;;;;;;5070293;28;20024;-76
2021/10/19 12:01:42;;;;;;;13.38;11.82;;;716.80;1331.20;;;;;;5054614;28;20033;-76